DAL2540 KLGA-KMCO
Flight info
| Callsign | DAL2540 |
|---|---|
| Flight time | 2h 12m |
| Altitude | 34000 |
| Route | WHITE Q409 CRPLR EARZZ Q131 WAALT Y289 BAHAA HIBAC ALYNA4 |
| Aircraft | A321/M-SDE3FGHIRWY/LB1 |
Departure
| Time | 2026-04-21 23:15 |
|---|---|
| Airport | LaGuardia Airport (KLGA) |
Arrival
| Time | 2026-04-22 01:27 |
|---|---|
| Airport | Orlando International Airport (KMCO) |
| Time | Latitude | Longitude | Altitude | Speed | Heading |
|---|---|---|---|---|---|
| 2026-04-21 22:29 | 40.76886 | -73.86084 | 18 ft | 0 kts | 313° |
| 2026-04-21 23:01 | 40.76873 | -73.86068 | 19 ft | 4 kts | 335° |
| 2026-04-21 23:01 | 40.76849 | -73.86063 | 19 ft | 4 kts | 21° |
| 2026-04-21 23:01 | 40.76833 | -73.86076 | 19 ft | 1 kts | 43° |
| 2026-04-21 23:01 | 40.76830 | -73.86079 | 19 ft | 0 kts | 43° |
| 2026-04-21 23:05 | 40.76831 | -73.86078 | 17 ft | 0 kts | 43° |
| 2026-04-21 23:05 | 40.76835 | -73.86073 | 18 ft | 1 kts | 43° |
| 2026-04-21 23:05 | 40.76840 | -73.86066 | 18 ft | 1 kts | 43° |
| 2026-04-21 23:06 | 40.76853 | -73.86051 | 18 ft | 3 kts | 42° |
| 2026-04-21 23:06 | 40.76876 | -73.86024 | 17 ft | 5 kts | 42° |
| 2026-04-21 23:06 | 40.76909 | -73.85985 | 18 ft | 7 kts | 42° |
| 2026-04-21 23:06 | 40.76951 | -73.85935 | 17 ft | 9 kts | 41° |
| 2026-04-21 23:07 | 40.77013 | -73.85903 | 17 ft | 11 kts | 356° |
| 2026-04-21 23:07 | 40.77092 | -73.85931 | 17 ft | 13 kts | 338° |
| 2026-04-21 23:07 | 40.77163 | -73.86012 | 17 ft | 14 kts | 305° |
| 2026-04-21 23:07 | 40.77216 | -73.86125 | 19 ft | 15 kts | 302° |
| 2026-04-21 23:08 | 40.77273 | -73.86248 | 19 ft | 16 kts | 303° |
| 2026-04-21 23:08 | 40.77336 | -73.86382 | 17 ft | 18 kts | 301° |
| 2026-04-21 23:08 | 40.77403 | -73.86515 | 17 ft | 17 kts | 303° |
| 2026-04-21 23:08 | 40.77468 | -73.86652 | 17 ft | 18 kts | 302° |
| 2026-04-21 23:09 | 40.77540 | -73.86779 | 19 ft | 16 kts | 308° |
| 2026-04-21 23:09 | 40.77592 | -73.86888 | 17 ft | 13 kts | 301° |
| 2026-04-21 23:09 | 40.77637 | -73.86982 | 17 ft | 11 kts | 302° |
| 2026-04-21 23:09 | 40.77675 | -73.87063 | 18 ft | 10 kts | 302° |
| 2026-04-21 23:10 | 40.77728 | -73.87173 | 18 ft | 18 kts | 302° |
| 2026-04-21 23:10 | 40.77774 | -73.87323 | 18 ft | 17 kts | 270° |
| 2026-04-21 23:10 | 40.77805 | -73.87399 | 18 ft | 9 kts | 336° |
| 2026-04-21 23:10 | 40.77841 | -73.87445 | 18 ft | 7 kts | 307° |
| 2026-04-21 23:11 | 40.77862 | -73.87482 | 18 ft | 2 kts | 307° |
| 2026-04-21 23:11 | 40.77863 | -73.87483 | 18 ft | 0 kts | 307° |
| 2026-04-21 23:12 | 40.77866 | -73.87488 | 20 ft | 3 kts | 307° |
| 2026-04-21 23:12 | 40.77903 | -73.87563 | 18 ft | 16 kts | 302° |
| 2026-04-21 23:13 | 40.77969 | -73.87704 | 18 ft | 18 kts | 302° |
| 2026-04-21 23:13 | 40.78042 | -73.87824 | 17 ft | 16 kts | 339° |
| 2026-04-21 23:13 | 40.78140 | -73.87857 | 18 ft | 14 kts | 347° |
| 2026-04-21 23:13 | 40.78210 | -73.87827 | 18 ft | 10 kts | 61° |
| 2026-04-21 23:14 | 40.78198 | -73.87784 | 17 ft | 0 kts | 122° |
| 2026-04-21 23:14 | 40.78196 | -73.87781 | 17 ft | 3 kts | 122° |
| 2026-04-21 23:14 | 40.78121 | -73.87628 | 17 ft | 51 kts | 124° |
| 2026-04-21 23:14 | 40.77808 | -73.86964 | 19 ft | 117 kts | 121° |
| 2026-04-21 23:15 | 40.77290 | -73.85877 | 108 ft | 157 kts | 123° |
| 2026-04-21 23:15 | 40.76742 | -73.84728 | 895 ft | 147 kts | 134° |
| 2026-04-21 23:15 | 40.75820 | -73.83969 | 1295 ft | 169 kts | 166° |
| 2026-04-21 23:15 | 40.74663 | -73.83624 | 1949 ft | 168 kts | 170° |
| 2026-04-21 23:16 | 40.73494 | -73.83273 | 2335 ft | 182 kts | 170° |
| 2026-04-21 23:16 | 40.72181 | -73.82871 | 2540 ft | 203 kts | 169° |
| 2026-04-21 23:16 | 40.70717 | -73.82742 | 2678 ft | 221 kts | 191° |
| 2026-04-21 23:16 | 40.69165 | -73.83160 | 3019 ft | 233 kts | 195° |
| 2026-04-21 23:17 | 40.67812 | -73.83553 | 3556 ft | 234 kts | 199° |
| 2026-04-21 23:17 | 40.66366 | -73.84475 | 4076 ft | 236 kts | 220° |
| 2026-04-21 23:17 | 40.65056 | -73.85821 | 4629 ft | 241 kts | 221° |
| 2026-04-21 23:17 | 40.63721 | -73.87187 | 5280 ft | 245 kts | 221° |
| 2026-04-21 23:18 | 40.62364 | -73.88561 | 6061 ft | 247 kts | 220° |
| 2026-04-21 23:18 | 40.60866 | -73.89845 | 6554 ft | 266 kts | 216° |
| 2026-04-21 23:18 | 40.59230 | -73.91065 | 7186 ft | 275 kts | 209° |
| 2026-04-21 23:18 | 40.57490 | -73.92132 | 7985 ft | 277 kts | 208° |
| 2026-04-21 23:19 | 40.55721 | -73.93172 | 8812 ft | 279 kts | 208° |
| 2026-04-21 23:19 | 40.53939 | -73.94202 | 9621 ft | 280 kts | 208° |
| 2026-04-21 23:19 | 40.52148 | -73.95239 | 10353 ft | 286 kts | 208° |
| 2026-04-21 23:19 | 40.50256 | -73.96345 | 10524 ft | 309 kts | 208° |
| 2026-04-21 23:20 | 40.48224 | -73.97542 | 10759 ft | 328 kts | 208° |
| 2026-04-21 23:20 | 40.46143 | -73.98761 | 11327 ft | 334 kts | 208° |
| 2026-04-21 23:20 | 40.44003 | -74.00009 | 11995 ft | 338 kts | 208° |
| 2026-04-21 23:20 | 40.41816 | -74.01281 | 12701 ft | 341 kts | 208° |
| 2026-04-21 23:21 | 40.39631 | -74.02548 | 13408 ft | 344 kts | 208° |
| 2026-04-21 23:21 | 40.37457 | -74.03809 | 14090 ft | 348 kts | 208° |
| 2026-04-21 23:21 | 40.35237 | -74.05097 | 14697 ft | 351 kts | 208° |
| 2026-04-21 23:21 | 40.32993 | -74.06402 | 15285 ft | 355 kts | 208° |
| 2026-04-21 23:22 | 40.30722 | -74.07726 | 15865 ft | 359 kts | 208° |
| 2026-04-21 23:22 | 40.28435 | -74.09059 | 16430 ft | 363 kts | 208° |
| 2026-04-21 23:22 | 40.26099 | -74.10418 | 16906 ft | 368 kts | 208° |
| 2026-04-21 23:22 | 40.23759 | -74.11778 | 17015 ft | 369 kts | 208° |
| 2026-04-21 23:23 | 40.21409 | -74.13143 | 17027 ft | 369 kts | 208° |
| 2026-04-21 23:23 | 40.19067 | -74.14500 | 17021 ft | 369 kts | 208° |
| 2026-04-21 23:23 | 40.16726 | -74.15854 | 17029 ft | 369 kts | 208° |
| 2026-04-21 23:23 | 40.14378 | -74.17214 | 17027 ft | 369 kts | 208° |
| 2026-04-21 23:24 | 40.12028 | -74.18575 | 17025 ft | 369 kts | 208° |
| 2026-04-21 23:24 | 40.09680 | -74.19933 | 17016 ft | 369 kts | 208° |
| 2026-04-21 23:24 | 40.08127 | -74.20830 | 17019 ft | 369 kts | 208° |
| 2026-04-21 23:24 | 40.05775 | -74.22185 | 17027 ft | 369 kts | 208° |
| 2026-04-21 23:25 | 40.03425 | -74.23538 | 17029 ft | 369 kts | 208° |
| 2026-04-21 23:25 | 40.01100 | -74.24957 | 17030 ft | 367 kts | 213° |
| 2026-04-21 23:25 | 39.98970 | -74.26754 | 17026 ft | 363 kts | 221° |
| 2026-04-21 23:25 | 39.96933 | -74.28712 | 17028 ft | 364 kts | 221° |
| 2026-04-21 23:26 | 39.94876 | -74.30675 | 17485 ft | 367 kts | 221° |
| 2026-04-21 23:26 | 39.92803 | -74.32647 | 18103 ft | 370 kts | 221° |
| 2026-04-21 23:26 | 39.90712 | -74.34635 | 18665 ft | 374 kts | 221° |
| 2026-04-21 23:26 | 39.88603 | -74.36639 | 19140 ft | 377 kts | 221° |
| 2026-04-21 23:27 | 39.86474 | -74.38662 | 19631 ft | 380 kts | 221° |
| 2026-04-21 23:27 | 39.84331 | -74.40697 | 20110 ft | 383 kts | 221° |
| 2026-04-21 23:27 | 39.82185 | -74.42762 | 20550 ft | 385 kts | 224° |
| 2026-04-21 23:27 | 39.80232 | -74.45145 | 21008 ft | 384 kts | 231° |
| 2026-04-21 23:28 | 39.78362 | -74.47645 | 21478 ft | 387 kts | 231° |
| 2026-04-21 23:28 | 39.76477 | -74.50159 | 21937 ft | 390 kts | 231° |
| 2026-04-21 23:28 | 39.74574 | -74.52689 | 22375 ft | 393 kts | 231° |
| 2026-04-21 23:28 | 39.72655 | -74.55233 | 22813 ft | 396 kts | 230° |
| 2026-04-21 23:29 | 39.70720 | -74.57789 | 23258 ft | 398 kts | 230° |
| 2026-04-21 23:29 | 39.68767 | -74.60366 | 23702 ft | 401 kts | 230° |
| 2026-04-21 23:29 | 39.66836 | -74.62916 | 24066 ft | 404 kts | 231° |
| 2026-04-21 23:29 | 39.64855 | -74.65532 | 24416 ft | 406 kts | 231° |
| 2026-04-21 23:30 | 39.62866 | -74.68155 | 24787 ft | 408 kts | 231° |
| 2026-04-21 23:30 | 39.60861 | -74.70798 | 25138 ft | 411 kts | 231° |
| 2026-04-21 23:30 | 39.58853 | -74.73444 | 25476 ft | 413 kts | 231° |
| 2026-04-21 23:30 | 39.56836 | -74.76100 | 25823 ft | 415 kts | 231° |
| 2026-04-21 23:31 | 39.54801 | -74.78775 | 26172 ft | 417 kts | 231° |
| 2026-04-21 23:31 | 39.52752 | -74.81462 | 26513 ft | 419 kts | 231° |
| 2026-04-21 23:31 | 39.50697 | -74.84156 | 26827 ft | 421 kts | 231° |
| 2026-04-21 23:31 | 39.48637 | -74.86857 | 27153 ft | 424 kts | 231° |
| 2026-04-21 23:32 | 39.46557 | -74.89584 | 27476 ft | 426 kts | 231° |
| 2026-04-21 23:32 | 39.44475 | -74.92313 | 27805 ft | 428 kts | 231° |
| 2026-04-21 23:32 | 39.42402 | -74.95029 | 28084 ft | 430 kts | 231° |
| 2026-04-21 23:32 | 39.40291 | -74.97787 | 28395 ft | 432 kts | 231° |
| 2026-04-21 23:33 | 39.38174 | -75.00548 | 28689 ft | 434 kts | 231° |
| 2026-04-21 23:33 | 39.36039 | -75.03329 | 28977 ft | 436 kts | 231° |
| 2026-04-21 23:33 | 39.33903 | -75.06115 | 29239 ft | 438 kts | 231° |
| 2026-04-21 23:33 | 39.31750 | -75.08916 | 29511 ft | 440 kts | 231° |
| 2026-04-21 23:34 | 39.29582 | -75.11721 | 29787 ft | 442 kts | 230° |
| 2026-04-21 23:34 | 39.27348 | -75.14477 | 30050 ft | 445 kts | 228° |
| 2026-04-21 23:34 | 39.25053 | -75.17181 | 30285 ft | 448 kts | 227° |
| 2026-04-21 23:34 | 39.22731 | -75.19843 | 30551 ft | 449 kts | 227° |
| 2026-04-21 23:35 | 39.20371 | -75.22521 | 30831 ft | 449 kts | 227° |
| 2026-04-21 23:35 | 39.18032 | -75.25187 | 31140 ft | 448 kts | 227° |
| 2026-04-21 23:35 | 39.15705 | -75.27863 | 31446 ft | 447 kts | 227° |
| 2026-04-21 23:35 | 39.13394 | -75.30547 | 31769 ft | 446 kts | 228° |
| 2026-04-21 23:36 | 39.11124 | -75.33199 | 32091 ft | 446 kts | 228° |
| 2026-04-21 23:36 | 39.08835 | -75.35876 | 32411 ft | 445 kts | 228° |
| 2026-04-21 23:36 | 39.06533 | -75.38563 | 32720 ft | 444 kts | 227° |
| 2026-04-21 23:36 | 39.04095 | -75.41031 | 33034 ft | 450 kts | 218° |
| 2026-04-21 23:37 | 39.01339 | -75.42985 | 33341 ft | 457 kts | 209° |
| 2026-04-21 23:37 | 38.98314 | -75.44343 | 33652 ft | 464 kts | 199° |
| 2026-04-21 23:37 | 38.95110 | -75.45047 | 33944 ft | 470 kts | 191° |
| 2026-04-21 23:37 | 38.91858 | -75.45482 | 34215 ft | 470 kts | 191° |
| 2026-04-21 23:38 | 38.85408 | -75.46357 | 34308 ft | 462 kts | 192° |
| 2026-04-21 23:38 | 38.79021 | -75.47244 | 34303 ft | 460 kts | 192° |
| 2026-04-21 23:39 | 38.72654 | -75.48133 | 34304 ft | 460 kts | 192° |
| 2026-04-21 23:39 | 38.66328 | -75.49000 | 34309 ft | 460 kts | 192° |
| 2026-04-21 23:40 | 38.59909 | -75.49873 | 34307 ft | 460 kts | 192° |
| 2026-04-21 23:40 | 38.53579 | -75.50734 | 34294 ft | 460 kts | 192° |
| 2026-04-21 23:41 | 38.47209 | -75.51589 | 34298 ft | 460 kts | 192° |
| 2026-04-21 23:41 | 38.40831 | -75.52444 | 34285 ft | 460 kts | 192° |
| 2026-04-21 23:42 | 38.34601 | -75.53950 | 34287 ft | 449 kts | 206° |
| 2026-04-21 23:42 | 38.29147 | -75.57520 | 34277 ft | 435 kts | 221° |
| 2026-04-21 23:43 | 38.24183 | -75.61881 | 34284 ft | 436 kts | 220° |
| 2026-04-21 23:43 | 38.19169 | -75.66241 | 34279 ft | 437 kts | 220° |
| 2026-04-21 23:44 | 38.14142 | -75.70601 | 34288 ft | 437 kts | 220° |
| 2026-04-21 23:44 | 38.09110 | -75.74953 | 34292 ft | 438 kts | 220° |
| 2026-04-21 23:45 | 38.01483 | -75.81292 | 34280 ft | 445 kts | 210° |
| 2026-04-21 23:46 | 37.95738 | -75.84354 | 34289 ft | 448 kts | 208° |
| 2026-04-21 23:46 | 37.89942 | -75.87332 | 34278 ft | 449 kts | 208° |
| 2026-04-21 23:47 | 37.84148 | -75.90281 | 34280 ft | 449 kts | 208° |
| 2026-04-21 23:47 | 37.78345 | -75.93236 | 34147 ft | 450 kts | 207° |
| 2026-04-21 23:47 | 37.75434 | -75.94725 | 34309 ft | 452 kts | 208° |
| 2026-04-21 23:48 | 37.72512 | -75.96228 | 34314 ft | 454 kts | 208° |
| 2026-04-21 23:48 | 37.66701 | -75.99211 | 34326 ft | 453 kts | 208° |
| 2026-04-21 23:49 | 37.60852 | -76.02194 | 34335 ft | 452 kts | 208° |
| 2026-04-21 23:49 | 37.55023 | -76.05167 | 34327 ft | 452 kts | 208° |
| 2026-04-21 23:50 | 37.49192 | -76.08138 | 34320 ft | 451 kts | 208° |
| 2026-04-21 23:50 | 37.43367 | -76.11108 | 34315 ft | 452 kts | 208° |
| 2026-04-21 23:51 | 37.37528 | -76.14063 | 34311 ft | 452 kts | 208° |
| 2026-04-21 23:51 | 37.31683 | -76.17010 | 34300 ft | 453 kts | 208° |
| 2026-04-21 23:52 | 37.25878 | -76.19948 | 34298 ft | 453 kts | 208° |
| 2026-04-21 23:52 | 37.20011 | -76.22912 | 34288 ft | 454 kts | 208° |
| 2026-04-21 23:53 | 37.14155 | -76.25859 | 34293 ft | 454 kts | 208° |
| 2026-04-21 23:53 | 37.08279 | -76.28817 | 34289 ft | 455 kts | 208° |
| 2026-04-21 23:54 | 37.02408 | -76.31771 | 34295 ft | 455 kts | 208° |
| 2026-04-21 23:54 | 36.96518 | -76.34713 | 34311 ft | 455 kts | 208° |
| 2026-04-21 23:55 | 36.90644 | -76.37643 | 34315 ft | 455 kts | 208° |
| 2026-04-21 23:55 | 36.84746 | -76.40596 | 34313 ft | 456 kts | 208° |
| 2026-04-21 23:56 | 36.78870 | -76.43531 | 34308 ft | 456 kts | 208° |
| 2026-04-21 23:56 | 36.72999 | -76.46455 | 34311 ft | 457 kts | 208° |
| 2026-04-21 23:57 | 36.67084 | -76.49395 | 34301 ft | 457 kts | 208° |
| 2026-04-21 23:57 | 36.61161 | -76.52332 | 34301 ft | 458 kts | 208° |
| 2026-04-21 23:58 | 36.55241 | -76.55260 | 34305 ft | 458 kts | 209° |
| 2026-04-21 23:58 | 36.49315 | -76.58193 | 34304 ft | 458 kts | 209° |
| 2026-04-21 23:59 | 36.43426 | -76.61108 | 34311 ft | 459 kts | 209° |
| 2026-04-21 23:59 | 36.37498 | -76.64027 | 34315 ft | 459 kts | 209° |
| 2026-04-22 00:00 | 36.31560 | -76.66940 | 34316 ft | 459 kts | 209° |
| 2026-04-22 00:00 | 36.25606 | -76.69865 | 34317 ft | 460 kts | 209° |
| 2026-04-22 00:01 | 36.19641 | -76.72797 | 34320 ft | 460 kts | 209° |
| 2026-04-22 00:01 | 36.13684 | -76.75721 | 34323 ft | 461 kts | 209° |
| 2026-04-22 00:02 | 36.07750 | -76.78621 | 34327 ft | 461 kts | 209° |
| 2026-04-22 00:02 | 36.01780 | -76.81534 | 34324 ft | 461 kts | 209° |
| 2026-04-22 00:03 | 35.95813 | -76.84437 | 34324 ft | 461 kts | 209° |
| 2026-04-22 00:03 | 35.89840 | -76.87338 | 34316 ft | 461 kts | 209° |
| 2026-04-22 00:04 | 35.83895 | -76.90222 | 34320 ft | 461 kts | 209° |
| 2026-04-22 00:04 | 35.77915 | -76.93115 | 34316 ft | 461 kts | 209° |
| 2026-04-22 00:05 | 35.71942 | -76.96009 | 34320 ft | 461 kts | 210° |
| 2026-04-22 00:05 | 35.65971 | -76.98902 | 34331 ft | 461 kts | 209° |
| 2026-04-22 00:06 | 35.60019 | -77.01778 | 34332 ft | 460 kts | 209° |
| 2026-04-22 00:06 | 35.54058 | -77.04648 | 34340 ft | 460 kts | 209° |
| 2026-04-22 00:07 | 35.48091 | -77.07520 | 34341 ft | 459 kts | 209° |
| 2026-04-22 00:07 | 35.42204 | -77.10346 | 34338 ft | 459 kts | 209° |
| 2026-04-22 00:08 | 35.36232 | -77.13213 | 34339 ft | 458 kts | 209° |
| 2026-04-22 00:08 | 35.30301 | -77.16054 | 34341 ft | 458 kts | 209° |
| 2026-04-22 00:09 | 35.24361 | -77.18892 | 34355 ft | 458 kts | 209° |
| 2026-04-22 00:09 | 35.18421 | -77.21724 | 34362 ft | 457 kts | 209° |
| 2026-04-22 00:10 | 35.12498 | -77.24548 | 34365 ft | 457 kts | 209° |
| 2026-04-22 00:10 | 35.06573 | -77.27364 | 34365 ft | 456 kts | 208° |
| 2026-04-22 00:11 | 35.01658 | -77.29699 | 34362 ft | 456 kts | 209° |
| 2026-04-22 00:11 | 34.95750 | -77.32501 | 34363 ft | 455 kts | 208° |
| 2026-04-22 00:12 | 34.88872 | -77.35748 | 34347 ft | 455 kts | 208° |
| 2026-04-22 00:12 | 34.83936 | -77.38081 | 34338 ft | 455 kts | 209° |
| 2026-04-22 00:13 | 34.78066 | -77.40863 | 34330 ft | 455 kts | 209° |
| 2026-04-22 00:13 | 34.72160 | -77.43652 | 34324 ft | 455 kts | 208° |
| 2026-04-22 00:14 | 34.66242 | -77.46436 | 34326 ft | 455 kts | 208° |
| 2026-04-22 00:14 | 34.60335 | -77.49209 | 34326 ft | 455 kts | 208° |
| 2026-04-22 00:15 | 34.54424 | -77.51983 | 34336 ft | 455 kts | 208° |
| 2026-04-22 00:15 | 34.48518 | -77.54755 | 34332 ft | 455 kts | 208° |
| 2026-04-22 00:16 | 34.42611 | -77.57519 | 34338 ft | 455 kts | 208° |
| 2026-04-22 00:16 | 34.36745 | -77.60252 | 34330 ft | 455 kts | 208° |
| 2026-04-22 00:17 | 34.30834 | -77.63010 | 34332 ft | 455 kts | 208° |
| 2026-04-22 00:17 | 34.24937 | -77.65763 | 34333 ft | 455 kts | 208° |
| 2026-04-22 00:18 | 34.19027 | -77.68510 | 34334 ft | 455 kts | 208° |
| 2026-04-22 00:18 | 34.13108 | -77.71255 | 34332 ft | 454 kts | 208° |
| 2026-04-22 00:19 | 34.07211 | -77.73979 | 34334 ft | 454 kts | 208° |
| 2026-04-22 00:19 | 34.01335 | -77.76701 | 34337 ft | 454 kts | 208° |
| 2026-04-22 00:20 | 33.95440 | -77.79437 | 34331 ft | 453 kts | 208° |
| 2026-04-22 00:20 | 33.89562 | -77.82155 | 34338 ft | 452 kts | 208° |
| 2026-04-22 00:21 | 33.83689 | -77.84862 | 34337 ft | 452 kts | 208° |
| 2026-04-22 00:21 | 33.77765 | -77.87424 | 34336 ft | 456 kts | 202° |
| 2026-04-22 00:22 | 33.71649 | -77.89489 | 34343 ft | 456 kts | 202° |
| 2026-04-22 00:22 | 33.65577 | -77.91543 | 34348 ft | 455 kts | 202° |
| 2026-04-22 00:23 | 33.59484 | -77.93606 | 34355 ft | 455 kts | 202° |
| 2026-04-22 00:23 | 33.53411 | -77.95666 | 34355 ft | 454 kts | 202° |
| 2026-04-22 00:24 | 33.47326 | -77.97733 | 34353 ft | 454 kts | 202° |
| 2026-04-22 00:24 | 33.41244 | -77.99781 | 34355 ft | 453 kts | 202° |
| 2026-04-22 00:25 | 33.35173 | -78.01831 | 34352 ft | 453 kts | 202° |
| 2026-04-22 00:25 | 33.29115 | -78.03879 | 34355 ft | 452 kts | 202° |
| 2026-04-22 00:26 | 33.23057 | -78.05907 | 34347 ft | 452 kts | 202° |
| 2026-04-22 00:26 | 33.17025 | -78.07933 | 34353 ft | 452 kts | 202° |
| 2026-04-22 00:27 | 33.10996 | -78.09960 | 34341 ft | 451 kts | 202° |
| 2026-04-22 00:27 | 33.04943 | -78.11983 | 34341 ft | 451 kts | 202° |
| 2026-04-22 00:28 | 32.98881 | -78.14003 | 34338 ft | 451 kts | 202° |
| 2026-04-22 00:28 | 32.92833 | -78.16020 | 34336 ft | 451 kts | 202° |
| 2026-04-22 00:29 | 32.86787 | -78.18034 | 34334 ft | 451 kts | 202° |
| 2026-04-22 00:29 | 32.80734 | -78.20038 | 34331 ft | 451 kts | 202° |
| 2026-04-22 00:30 | 32.74741 | -78.22039 | 34331 ft | 451 kts | 202° |
| 2026-04-22 00:30 | 32.68678 | -78.24053 | 34334 ft | 451 kts | 202° |
| 2026-04-22 00:31 | 32.62629 | -78.26053 | 34335 ft | 451 kts | 202° |
| 2026-04-22 00:31 | 32.56586 | -78.28057 | 34339 ft | 451 kts | 202° |
| 2026-04-22 00:32 | 32.50537 | -78.30056 | 34332 ft | 451 kts | 202° |
| 2026-04-22 00:32 | 32.44501 | -78.32045 | 34339 ft | 451 kts | 202° |
| 2026-04-22 00:33 | 32.38460 | -78.34036 | 34327 ft | 451 kts | 202° |
| 2026-04-22 00:33 | 32.32400 | -78.36029 | 34328 ft | 451 kts | 202° |
| 2026-04-22 00:34 | 32.26341 | -78.38022 | 34331 ft | 451 kts | 202° |
| 2026-04-22 00:34 | 32.20339 | -78.40000 | 34326 ft | 451 kts | 202° |
| 2026-04-22 00:35 | 32.14275 | -78.41995 | 34327 ft | 451 kts | 202° |
| 2026-04-22 00:35 | 32.08214 | -78.43977 | 34316 ft | 452 kts | 202° |
| 2026-04-22 00:36 | 32.02167 | -78.45939 | 34324 ft | 452 kts | 202° |
| 2026-04-22 00:36 | 31.96089 | -78.47916 | 34317 ft | 452 kts | 202° |
| 2026-04-22 00:37 | 31.90020 | -78.49899 | 34320 ft | 453 kts | 202° |
| 2026-04-22 00:37 | 31.83928 | -78.51887 | 34317 ft | 453 kts | 202° |
| 2026-04-22 00:38 | 31.77881 | -78.53852 | 34317 ft | 453 kts | 202° |
| 2026-04-22 00:38 | 31.71796 | -78.55825 | 34315 ft | 454 kts | 202° |
| 2026-04-22 00:39 | 31.65671 | -78.57803 | 34314 ft | 454 kts | 202° |
| 2026-04-22 00:39 | 31.59590 | -78.59772 | 34313 ft | 454 kts | 202° |
| 2026-04-22 00:40 | 31.53474 | -78.61753 | 34309 ft | 455 kts | 202° |
| 2026-04-22 00:40 | 31.47446 | -78.63788 | 34308 ft | 454 kts | 203° |
| 2026-04-22 00:41 | 31.41381 | -78.65897 | 34302 ft | 455 kts | 203° |
| 2026-04-22 00:41 | 31.35301 | -78.68000 | 34307 ft | 456 kts | 203° |
| 2026-04-22 00:42 | 31.29198 | -78.70090 | 34301 ft | 456 kts | 203° |
| 2026-04-22 00:42 | 31.23091 | -78.72164 | 34306 ft | 457 kts | 203° |
| 2026-04-22 00:43 | 31.16990 | -78.74238 | 34309 ft | 457 kts | 203° |
| 2026-04-22 00:43 | 31.10878 | -78.76328 | 34310 ft | 457 kts | 203° |
| 2026-04-22 00:44 | 31.04755 | -78.78408 | 34304 ft | 458 kts | 203° |
| 2026-04-22 00:44 | 30.98634 | -78.80484 | 34313 ft | 458 kts | 203° |
| 2026-04-22 00:45 | 30.92548 | -78.82546 | 34305 ft | 458 kts | 203° |
| 2026-04-22 00:45 | 30.86415 | -78.84627 | 34309 ft | 459 kts | 203° |
| 2026-04-22 00:46 | 30.80281 | -78.86706 | 34307 ft | 459 kts | 203° |
| 2026-04-22 00:46 | 30.74151 | -78.88763 | 34305 ft | 459 kts | 203° |
| 2026-04-22 00:47 | 30.68034 | -78.90812 | 34306 ft | 459 kts | 203° |
| 2026-04-22 00:47 | 30.61896 | -78.92872 | 34308 ft | 460 kts | 203° |
| 2026-04-22 00:48 | 30.55738 | -78.94947 | 34306 ft | 460 kts | 203° |
| 2026-04-22 00:48 | 30.49576 | -78.97023 | 34309 ft | 460 kts | 203° |
| 2026-04-22 00:49 | 30.43470 | -78.99068 | 34309 ft | 460 kts | 203° |
| 2026-04-22 00:49 | 30.37400 | -79.01375 | 34309 ft | 456 kts | 208° |
| 2026-04-22 00:50 | 30.31508 | -79.04061 | 34310 ft | 454 kts | 209° |
| 2026-04-22 00:50 | 30.25623 | -79.06766 | 34308 ft | 455 kts | 208° |
| 2026-04-22 00:51 | 30.19701 | -79.09376 | 34305 ft | 455 kts | 208° |
| 2026-04-22 00:51 | 30.13760 | -79.11935 | 34308 ft | 456 kts | 208° |
| 2026-04-22 00:52 | 30.07859 | -79.14486 | 34309 ft | 455 kts | 208° |
| 2026-04-22 00:52 | 30.01923 | -79.17065 | 34312 ft | 455 kts | 208° |
| 2026-04-22 00:53 | 29.95989 | -79.19637 | 34315 ft | 456 kts | 208° |
| 2026-04-22 00:53 | 29.90065 | -79.22191 | 34319 ft | 455 kts | 208° |
| 2026-04-22 00:54 | 29.84118 | -79.24763 | 34314 ft | 455 kts | 208° |
| 2026-04-22 00:54 | 29.78200 | -79.27319 | 34310 ft | 455 kts | 208° |
| 2026-04-22 00:55 | 29.72263 | -79.29894 | 34311 ft | 455 kts | 208° |
| 2026-04-22 00:55 | 29.63366 | -79.33710 | 34313 ft | 455 kts | 207° |
| 2026-04-22 00:56 | 29.57473 | -79.36237 | 34305 ft | 454 kts | 207° |
| 2026-04-22 00:56 | 29.51548 | -79.38787 | 34308 ft | 454 kts | 208° |
| 2026-04-22 00:57 | 29.45648 | -79.41319 | 34286 ft | 455 kts | 207° |
| 2026-04-22 00:57 | 29.43629 | -79.42179 | 34106 ft | 455 kts | 207° |
| 2026-04-22 00:57 | 29.40662 | -79.43444 | 33835 ft | 455 kts | 207° |
| 2026-04-22 00:58 | 29.37686 | -79.44726 | 33566 ft | 456 kts | 207° |
| 2026-04-22 00:58 | 29.34749 | -79.45989 | 33304 ft | 457 kts | 207° |
| 2026-04-22 00:58 | 29.31774 | -79.47265 | 32858 ft | 456 kts | 207° |
| 2026-04-22 00:58 | 29.28810 | -79.48535 | 32345 ft | 453 kts | 207° |
| 2026-04-22 00:59 | 29.25862 | -79.49798 | 31775 ft | 451 kts | 207° |
| 2026-04-22 00:59 | 29.22925 | -79.51052 | 31216 ft | 450 kts | 207° |
| 2026-04-22 00:59 | 29.20012 | -79.52290 | 30660 ft | 448 kts | 206° |
| 2026-04-22 00:59 | 29.17069 | -79.53541 | 30058 ft | 447 kts | 206° |
| 2026-04-22 01:00 | 29.14255 | -79.54922 | 29512 ft | 436 kts | 215° |
| 2026-04-22 01:00 | 29.11775 | -79.56838 | 28993 ft | 422 kts | 226° |
| 2026-04-22 01:00 | 29.09725 | -79.59169 | 28492 ft | 409 kts | 237° |
| 2026-04-22 01:00 | 29.08144 | -79.61808 | 28011 ft | 397 kts | 247° |
| 2026-04-22 01:01 | 29.07033 | -79.64645 | 27562 ft | 386 kts | 256° |
| 2026-04-22 01:01 | 29.06167 | -79.67533 | 27106 ft | 382 kts | 256° |
| 2026-04-22 01:01 | 29.05300 | -79.70384 | 26673 ft | 377 kts | 255° |
| 2026-04-22 01:01 | 29.04438 | -79.73190 | 26246 ft | 373 kts | 255° |
| 2026-04-22 01:02 | 29.03585 | -79.75979 | 25838 ft | 369 kts | 255° |
| 2026-04-22 01:02 | 29.02742 | -79.78732 | 25423 ft | 365 kts | 255° |
| 2026-04-22 01:02 | 29.01910 | -79.81448 | 25023 ft | 361 kts | 255° |
| 2026-04-22 01:02 | 29.01086 | -79.84145 | 24623 ft | 357 kts | 255° |
| 2026-04-22 01:03 | 29.00270 | -79.86817 | 24230 ft | 354 kts | 255° |
| 2026-04-22 01:03 | 28.99461 | -79.89464 | 23808 ft | 352 kts | 255° |
| 2026-04-22 01:03 | 28.98658 | -79.92090 | 23364 ft | 348 kts | 255° |
| 2026-04-22 01:03 | 28.97863 | -79.94690 | 22949 ft | 345 kts | 255° |
| 2026-04-22 01:04 | 28.97078 | -79.97258 | 22527 ft | 341 kts | 255° |
| 2026-04-22 01:04 | 28.96332 | -79.99788 | 22107 ft | 338 kts | 256° |
| 2026-04-22 01:04 | 28.95623 | -80.02332 | 21700 ft | 335 kts | 256° |
| 2026-04-22 01:04 | 28.94934 | -80.04861 | 21282 ft | 332 kts | 256° |
| 2026-04-22 01:05 | 28.94250 | -80.07369 | 20864 ft | 330 kts | 256° |
| 2026-04-22 01:05 | 28.93565 | -80.09872 | 20453 ft | 329 kts | 256° |
| 2026-04-22 01:05 | 28.92881 | -80.12359 | 20037 ft | 328 kts | 255° |
| 2026-04-22 01:05 | 28.92200 | -80.14834 | 19627 ft | 327 kts | 255° |
| 2026-04-22 01:06 | 28.91519 | -80.17290 | 19220 ft | 326 kts | 255° |
| 2026-04-22 01:06 | 28.90836 | -80.19738 | 18812 ft | 325 kts | 255° |
| 2026-04-22 01:06 | 28.90150 | -80.22201 | 18377 ft | 325 kts | 255° |
| 2026-04-22 01:06 | 28.89468 | -80.24649 | 17964 ft | 323 kts | 254° |
| 2026-04-22 01:07 | 28.88783 | -80.27098 | 17306 ft | 329 kts | 254° |
| 2026-04-22 01:07 | 28.88084 | -80.29596 | 16855 ft | 329 kts | 254° |
| 2026-04-22 01:07 | 28.87392 | -80.32080 | 16455 ft | 327 kts | 255° |
| 2026-04-22 01:07 | 28.86706 | -80.34543 | 16064 ft | 326 kts | 254° |
| 2026-04-22 01:08 | 28.86019 | -80.37002 | 15678 ft | 324 kts | 254° |
| 2026-04-22 01:08 | 28.85333 | -80.39450 | 15286 ft | 323 kts | 254° |
| 2026-04-22 01:08 | 28.84647 | -80.41886 | 14895 ft | 322 kts | 254° |
| 2026-04-22 01:08 | 28.83964 | -80.44312 | 14510 ft | 322 kts | 254° |
| 2026-04-22 01:09 | 28.83289 | -80.46757 | 14128 ft | 321 kts | 257° |
| 2026-04-22 01:09 | 28.82939 | -80.49249 | 13849 ft | 321 kts | 268° |
| 2026-04-22 01:09 | 28.82756 | -80.51865 | 13778 ft | 334 kts | 267° |
| 2026-04-22 01:09 | 28.82550 | -80.54501 | 13697 ft | 336 kts | 266° |
| 2026-04-22 01:10 | 28.82330 | -80.57133 | 13612 ft | 337 kts | 266° |
| 2026-04-22 01:10 | 28.82102 | -80.59798 | 13540 ft | 336 kts | 266° |
| 2026-04-22 01:10 | 28.81875 | -80.62452 | 13459 ft | 336 kts | 266° |
| 2026-04-22 01:10 | 28.81653 | -80.65101 | 13384 ft | 335 kts | 266° |
| 2026-04-22 01:11 | 28.81432 | -80.67750 | 13304 ft | 335 kts | 266° |
| 2026-04-22 01:11 | 28.81213 | -80.70377 | 13232 ft | 334 kts | 266° |
| 2026-04-22 01:11 | 28.80993 | -80.73022 | 13159 ft | 334 kts | 266° |
| 2026-04-22 01:11 | 28.80774 | -80.75662 | 13082 ft | 333 kts | 266° |
| 2026-04-22 01:12 | 28.80555 | -80.78293 | 13009 ft | 333 kts | 266° |
| 2026-04-22 01:12 | 28.80335 | -80.80917 | 12924 ft | 333 kts | 266° |
| 2026-04-22 01:12 | 28.80115 | -80.83545 | 12856 ft | 332 kts | 266° |
| 2026-04-22 01:12 | 28.79900 | -80.86131 | 12786 ft | 332 kts | 266° |
| 2026-04-22 01:13 | 28.79682 | -80.88759 | 12713 ft | 332 kts | 266° |
| 2026-04-22 01:13 | 28.79468 | -80.91367 | 12632 ft | 332 kts | 266° |
| 2026-04-22 01:13 | 28.79251 | -80.93999 | 12575 ft | 331 kts | 266° |
| 2026-04-22 01:13 | 28.79030 | -80.96606 | 12500 ft | 331 kts | 266° |
| 2026-04-22 01:14 | 28.78802 | -80.99223 | 12432 ft | 331 kts | 265° |
| 2026-04-22 01:14 | 28.78394 | -81.01809 | 12350 ft | 332 kts | 254° |
| 2026-04-22 01:14 | 28.77491 | -81.04228 | 12273 ft | 333 kts | 240° |
| 2026-04-22 01:14 | 28.76140 | -81.06373 | 12203 ft | 334 kts | 231° |
| 2026-04-22 01:15 | 28.74677 | -81.08428 | 12133 ft | 334 kts | 232° |
| 2026-04-22 01:15 | 28.73231 | -81.10480 | 12069 ft | 333 kts | 232° |
| 2026-04-22 01:15 | 28.71770 | -81.12489 | 11960 ft | 323 kts | 226° |
| 2026-04-22 01:15 | 28.70050 | -81.14060 | 11781 ft | 314 kts | 211° |
| 2026-04-22 01:16 | 28.68077 | -81.15065 | 11433 ft | 311 kts | 195° |
| 2026-04-22 01:16 | 28.65971 | -81.15632 | 11022 ft | 310 kts | 192° |
| 2026-04-22 01:16 | 28.63854 | -81.16172 | 10556 ft | 313 kts | 192° |
| 2026-04-22 01:16 | 28.61780 | -81.16704 | 10307 ft | 307 kts | 192° |
| 2026-04-22 01:17 | 28.59701 | -81.17238 | 9923 ft | 306 kts | 192° |
| 2026-04-22 01:17 | 28.57653 | -81.17770 | 9737 ft | 297 kts | 192° |
| 2026-04-22 01:17 | 28.55674 | -81.18286 | 9585 ft | 286 kts | 192° |
| 2026-04-22 01:17 | 28.53744 | -81.18634 | 9324 ft | 280 kts | 180° |
| 2026-04-22 01:18 | 28.51800 | -81.18645 | 8976 ft | 278 kts | 179° |
| 2026-04-22 01:18 | 28.49866 | -81.18656 | 8633 ft | 276 kts | 179° |
| 2026-04-22 01:18 | 28.47958 | -81.18670 | 8288 ft | 274 kts | 179° |
| 2026-04-22 01:18 | 28.46046 | -81.18688 | 7946 ft | 273 kts | 179° |
| 2026-04-22 01:19 | 28.44165 | -81.18708 | 7606 ft | 271 kts | 179° |
| 2026-04-22 01:19 | 28.42275 | -81.18726 | 7266 ft | 270 kts | 179° |
| 2026-04-22 01:19 | 28.40393 | -81.18743 | 6931 ft | 268 kts | 178° |
| 2026-04-22 01:19 | 28.38538 | -81.18759 | 6600 ft | 267 kts | 178° |
| 2026-04-22 01:20 | 28.36684 | -81.18775 | 6253 ft | 265 kts | 178° |
| 2026-04-22 01:20 | 28.34863 | -81.18789 | 5927 ft | 263 kts | 178° |
| 2026-04-22 01:20 | 28.33003 | -81.18803 | 5326 ft | 272 kts | 176° |
| 2026-04-22 01:20 | 28.31123 | -81.18817 | 5048 ft | 267 kts | 176° |
| 2026-04-22 01:21 | 28.29302 | -81.18811 | 4971 ft | 253 kts | 175° |
| 2026-04-22 01:21 | 28.27558 | -81.18776 | 5002 ft | 253 kts | 174° |
| 2026-04-22 01:21 | 28.25788 | -81.18727 | 5012 ft | 256 kts | 174° |
| 2026-04-22 01:21 | 28.24012 | -81.18723 | 5004 ft | 258 kts | 183° |
| 2026-04-22 01:22 | 28.22301 | -81.19359 | 4766 ft | 263 kts | 210° |
| 2026-04-22 01:22 | 28.21016 | -81.20817 | 4439 ft | 265 kts | 238° |
| 2026-04-22 01:22 | 28.20450 | -81.22788 | 4108 ft | 264 kts | 268° |
| 2026-04-22 01:22 | 28.20712 | -81.24821 | 4001 ft | 262 kts | 294° |
| 2026-04-22 01:23 | 28.21672 | -81.26553 | 3922 ft | 259 kts | 319° |
| 2026-04-22 01:23 | 28.23121 | -81.27684 | 3719 ft | 252 kts | 342° |
| 2026-04-22 01:23 | 28.24804 | -81.28064 | 3438 ft | 243 kts | 4° |
| 2026-04-22 01:23 | 28.26479 | -81.28078 | 3159 ft | 237 kts | 4° |
| 2026-04-22 01:24 | 28.28114 | -81.28093 | 2815 ft | 233 kts | 4° |
| 2026-04-22 01:24 | 28.29718 | -81.28109 | 2504 ft | 227 kts | 4° |
| 2026-04-22 01:24 | 28.31277 | -81.28125 | 2209 ft | 223 kts | 4° |
| 2026-04-22 01:24 | 28.32814 | -81.28141 | 1918 ft | 217 kts | 5° |
| 2026-04-22 01:25 | 28.34285 | -81.28157 | 1648 ft | 205 kts | 5° |
| 2026-04-22 01:25 | 28.35671 | -81.28172 | 1372 ft | 196 kts | 5° |
| 2026-04-22 01:25 | 28.36972 | -81.28187 | 1117 ft | 176 kts | 5° |
| 2026-04-22 01:25 | 28.38126 | -81.28199 | 888 ft | 156 kts | 4° |
| 2026-04-22 01:26 | 28.39192 | -81.28209 | 675 ft | 150 kts | 3° |
| 2026-04-22 01:26 | 28.40193 | -81.28218 | 476 ft | 143 kts | 3° |
| 2026-04-22 01:26 | 28.41203 | -81.28223 | 266 ft | 142 kts | 3° |
| 2026-04-22 01:26 | 28.42166 | -81.28234 | 125 ft | 141 kts | 2° |
| 2026-04-22 01:27 | 28.43063 | -81.28242 | 95 ft | 107 kts | 359° |
| 2026-04-22 01:27 | 28.43603 | -81.28242 | 100 ft | 47 kts | 359° |
| 2026-04-22 01:27 | 28.43839 | -81.28312 | 102 ft | 31 kts | 313° |
| 2026-04-22 01:27 | 28.43875 | -81.28533 | 104 ft | 28 kts | 268° |
| 2026-04-22 01:28 | 28.43873 | -81.28737 | 105 ft | 25 kts | 268° |
| 2026-04-22 01:28 | 28.43871 | -81.28925 | 107 ft | 23 kts | 271° |
| 2026-04-22 01:28 | 28.43869 | -81.29108 | 99 ft | 25 kts | 268° |
| 2026-04-22 01:28 | 28.43852 | -81.29257 | 97 ft | 12 kts | 223° |
| 2026-04-22 01:29 | 28.43787 | -81.29265 | 98 ft | 9 kts | 181° |
| 2026-04-22 01:29 | 28.43721 | -81.29265 | 99 ft | 12 kts | 180° |
| 2026-04-22 01:29 | 28.43603 | -81.29265 | 100 ft | 19 kts | 181° |
| 2026-04-22 01:29 | 28.43552 | -81.29351 | 101 ft | 13 kts | 270° |
| 2026-04-22 01:30 | 28.43553 | -81.29444 | 101 ft | 11 kts | 270° |
| 2026-04-22 01:30 | 28.43552 | -81.29557 | 101 ft | 18 kts | 269° |
| 2026-04-22 01:30 | 28.43537 | -81.29714 | 100 ft | 15 kts | 231° |
| 2026-04-22 01:30 | 28.43474 | -81.29724 | 100 ft | 9 kts | 173° |
| 2026-04-22 01:31 | 28.43411 | -81.29714 | 101 ft | 10 kts | 173° |
| 2026-04-22 01:31 | 28.43319 | -81.29711 | 101 ft | 17 kts | 179° |
| 2026-04-22 01:31 | 28.43176 | -81.29707 | 100 ft | 25 kts | 180° |
| 2026-04-22 01:31 | 28.42987 | -81.29706 | 101 ft | 27 kts | 179° |
| 2026-04-22 01:32 | 28.42800 | -81.29704 | 99 ft | 27 kts | 179° |
| 2026-04-22 01:32 | 28.42632 | -81.29706 | 98 ft | 20 kts | 181° |
| 2026-04-22 01:32 | 28.42597 | -81.29748 | 97 ft | 5 kts | 269° |
| 2026-04-22 01:32 | 28.42597 | -81.29787 | 98 ft | 6 kts | 269° |
| 2026-04-22 01:33 | 28.42596 | -81.29843 | 100 ft | 7 kts | 269° |
| 2026-04-22 01:33 | 28.42550 | -81.29882 | 101 ft | 11 kts | 186° |
| 2026-04-22 01:33 | 28.42482 | -81.29922 | 100 ft | 11 kts | 221° |
| 2026-04-22 01:33 | 28.42442 | -81.29989 | 101 ft | 9 kts | 256° |
| 2026-04-22 01:34 | 28.42442 | -81.30008 | 101 ft | 0 kts | 293° |
| 2026-04-22 01:34 | 28.42467 | -81.30011 | 103 ft | 11 kts | 8° |
| 2026-04-22 01:34 | 28.42510 | -81.30016 | 103 ft | 3 kts | 358° |
| 2026-04-22 01:34 | 28.42521 | -81.30016 | 103 ft | 1 kts | 358° |
| 2026-04-22 01:35 | 28.42522 | -81.30016 | 103 ft | 1 kts | 358° |
| 2026-04-22 01:35 | 28.42523 | -81.30016 | 103 ft | 0 kts | 358° |